Time;durP1;ratioP1;P1;durP2;ratioP2;P2;SDS_P1;SDS_P2;PMS_P1;PMS_P2;Temp;Humidity;BMP_temperature;BMP_pressure;BME280_temperature;BME280_humidity;BME280_pressure;Samples;Min_cycle;Max_cycle;Signal;HPM_P1;HPM_P2
2022/06/19 00:01:23;;;;;;;11.65;3.83;;;;;;;22.31;66.82;96220.91;5056205;28;20227;-50
2022/06/19 00:03:54;;;;;;;10.73;4.35;;;;;;;22.28;67.52;96215.97;5057314;28;20238;-50
2022/06/19 00:06:22;;;;;;;8.65;3.55;;;;;;;22.23;69.14;96218.50;5057288;28;20294;-50
2022/06/19 00:08:51;;;;;;;12.50;3.85;;;;;;;22.18;69.75;96211.09;5057717;28;20207;-51
2022/06/19 00:11:19;;;;;;;11.30;4.18;;;;;;;22.16;69.38;96209.69;5057651;28;20207;-50
2022/06/19 00:13:49;;;;;;;6.55;3.50;;;;;;;22.16;68.63;96202.44;5057813;28;20222;-52
2022/06/19 00:16:18;;;;;;;12.10;3.95;;;;;;;22.08;70.04;96208.09;5058003;28;20211;-50
2022/06/19 00:18:46;;;;;;;11.15;4.38;;;;;;;22.03;70.49;96209.84;5062576;28;20199;-50
2022/06/19 00:21:15;;;;;;;8.73;3.80;;;;;;;21.99;70.17;96203.25;5073468;28;20231;-50
2022/06/19 00:23:42;;;;;;;8.98;4.13;;;;;;;21.97;70.09;96192.69;5064726;28;20223;-49
2022/06/19 00:26:11;;;;;;;8.95;3.90;;;;;;;21.94;70.52;96198.53;5057289;28;20282;-51
2022/06/19 00:28:37;;;;;;;11.95;4.18;;;;;;;21.89;70.73;96187.59;5056650;28;20215;-49
2022/06/19 00:31:05;;;;;;;6.70;3.55;;;;;;;21.91;70.35;96176.63;5063240;28;20207;-51
2022/06/19 00:33:32;;;;;;;11.52;4.20;;;;;;;21.84;71.40;96182.88;5076250;28;20207;-51
2022/06/19 00:35:59;;;;;;;15.85;4.22;;;;;;;21.83;71.14;96178.53;5066303;28;20203;-51
2022/06/19 00:38:26;;;;;;;8.57;4.03;;;;;;;21.82;71.57;96178.78;5060254;28;20203;-50
2022/06/19 00:40:55;;;;;;;7.07;4.13;;;;;;;21.81;71.80;96177.94;5056763;28;20211;-50
2022/06/19 00:43:22;;;;;;;7.28;3.53;;;;;;;21.76;72.03;96175.09;5056867;28;20234;-50
2022/06/19 00:45:50;;;;;;;8.77;3.63;;;;;;;21.79;71.42;96180.03;5056830;28;20597;-52
2022/06/19 00:48:23;;;;;;;7.40;3.63;;;;;;;21.75;72.34;96178.03;5056023;28;20691;-50
2022/06/19 00:50:52;;;;;;;9.95;4.38;;;;;;;21.74;71.68;96171.81;5056725;28;20203;-51
2022/06/19 00:53:38;;;;;;;9.32;3.63;;;;;;;21.73;72.17;96169.34;5056649;28;20203;-50
2022/06/19 00:56:05;;;;;;;11.40;4.03;;;;;;;21.70;72.36;96173.31;5056188;28;20598;-50
2022/06/19 00:58:35;;;;;;;9.65;3.88;;;;;;;21.68;72.67;96172.69;5050094;28;20310;-50
2022/06/19 01:01:06;;;;;;;12.68;3.80;;;;;;;21.80;71.27;96164.69;5062098;28;20294;-51
2022/06/19 01:03:41;;;;;;;9.40;4.13;;;;;;;21.78;71.49;96172.19;5056529;28;20221;-50
2022/06/19 01:06:11;;;;;;;9.98;3.80;;;;;;;21.74;72.14;96173.69;5056469;28;20535;-50
2022/06/19 01:08:37;;;;;;;10.32;4.07;;;;;;;21.67;72.64;96176.44;5056435;28;20199;-51
2022/06/19 01:11:05;;;;;;;15.35;3.97;;;;;;;21.64;72.83;96171.53;5056165;28;20272;-51
2022/06/19 01:13:33;;;;;;;13.50;4.45;;;;;;;21.61;73.35;96171.94;5056283;28;20223;-51
2022/06/19 01:16:03;;;;;;;10.32;4.10;;;;;;;21.64;73.30;96165.31;5056348;28;20585;-50
2022/06/19 01:18:32;;;;;;;7.90;3.90;;;;;;;21.60;73.45;96169.50;5055966;28;20293;-51
2022/06/19 01:21:06;;;;;;;10.38;4.00;;;;;;;21.65;71.88;96162.38;5056546;28;20214;-50
2022/06/19 01:23:39;;;;;;;8.90;3.95;;;;;;;21.65;72.66;96165.06;5056172;28;20214;-51
2022/06/19 01:26:07;;;;;;;11.75;4.20;;;;;;;21.59;73.13;96160.59;5055948;28;20290;-49
2022/06/19 01:28:46;;;;;;;10.68;4.15;;;;;;;21.60;72.91;96161.41;5055923;28;20211;-52
2022/06/19 01:31:14;;;;;;;8.65;4.25;;;;;;;21.51;73.44;96168.94;5056006;28;20249;-50
2022/06/19 01:33:44;;;;;;;7.78;3.92;;;;;;;21.50;73.62;96175.41;5059035;28;20206;-50
2022/06/19 01:36:12;;;;;;;9.10;4.05;;;;;;;21.42;75.35;96164.91;5075205;28;20293;-50
2022/06/19 01:38:43;;;;;;;9.20;3.92;;;;;;;21.38;74.85;96169.09;5075290;28;20220;-51
2022/06/19 01:41:15;;;;;;;10.43;4.00;;;;;;;21.35;75.97;96172.22;5075380;28;20611;-50
2022/06/19 01:43:41;;;;;;;6.57;3.85;;;;;;;21.26;77.06;96168.97;5075795;28;20301;-49
2022/06/19 01:46:08;;;;;;;8.93;4.28;;;;;;;21.27;76.62;96167.13;5075356;28;20214;-51
2022/06/19 01:48:35;;;;;;;9.68;4.10;;;;;;;21.23;77.08;96163.22;5070173;28;20724;-50
2022/06/19 01:51:05;;;;;;;10.88;4.30;;;;;;;21.19;77.00;96159.31;5054350;28;20218;-49
2022/06/19 01:53:35;;;;;;;11.57;4.72;;;;;;;21.21;76.50;96162.63;5055501;28;20222;-51
2022/06/19 01:56:03;;;;;;;6.97;3.90;;;;;;;21.14;77.25;96159.19;5055429;28;20234;-50
2022/06/19 01:58:34;;;;;;;10.00;4.15;;;;;;;21.10;77.68;96153.44;5042096;28;20306;-51
2022/06/19 02:01:03;;;;;;;12.00;4.32;;;;;;;21.04;78.63;96153.44;5055217;28;20218;-51
2022/06/19 02:03:33;;;;;;;9.20;4.25;;;;;;;21.09;78.30;96161.66;5054712;28;20726;-50
2022/06/19 02:06:00;;;;;;;9.73;4.05;;;;;;;21.15;77.09;96160.84;5055362;28;20207;-50
2022/06/19 02:08:29;;;;;;;8.50;3.85;;;;;;;21.12;77.20;96166.63;5054716;28;20724;-51
2022/06/19 02:10:56;;;;;;;9.88;3.60;;;;;;;21.08;77.27;96160.84;5055261;28;20211;-50
2022/06/19 02:13:23;;;;;;;9.25;3.97;;;;;;;21.08;77.22;96165.41;5053831;28;20214;-50
2022/06/19 02:15:55;;;;;;;11.40;4.05;;;;;;;21.06;77.53;96173.69;5053897;28;20203;-49
2022/06/19 02:18:24;;;;;;;8.48;4.53;;;;;;;21.08;77.56;96170.78;5055343;28;20203;-50
2022/06/19 02:20:52;;;;;;;9.88;4.35;;;;;;;21.07;77.10;96163.75;5055025;28;20199;-50
2022/06/19 02:23:20;;;;;;;12.30;5.00;;;;;;;21.05;77.91;96165.81;5054868;28;20564;-50
2022/06/19 02:25:48;;;;;;;7.07;4.00;;;;;;;21.05;78.06;96171.22;5054664;28;20293;-51
2022/06/19 02:28:16;;;;;;;7.60;4.00;;;;;;;21.04;77.66;96165.03;5055052;28;20282;-50
2022/06/19 02:30:44;;;;;;;8.95;4.00;;;;;;;21.03;78.27;96162.56;5054767;28;20250;-51
2022/06/19 02:33:14;;;;;;;9.32;4.40;;;;;;;20.98;78.74;96175.81;5054964;28;20514;-50
2022/06/19 02:35:46;;;;;;;7.70;3.88;;;;;;;20.95;79.20;96171.72;5054618;28;20297;-51
2022/06/19 02:38:17;;;;;;;11.00;4.60;;;;;;;20.97;78.42;96175.00;5054569;28;20640;-50
2022/06/19 02:40:51;;;;;;;7.72;4.25;;;;;;;20.97;78.11;96180.41;5054984;28;20203;-50
2022/06/19 02:43:21;;;;;;;8.38;3.85;;;;;;;21.00;78.54;96184.50;5074883;28;20226;-51
2022/06/19 02:45:48;;;;;;;6.72;4.13;;;;;;;20.99;78.33;96172.09;5085418;28;20666;-51
2022/06/19 02:48:23;;;;;;;9.38;4.18;;;;;;;20.95;79.37;96176.25;5064662;28;20250;-51
2022/06/19 02:50:50;;;;;;;13.27;4.85;;;;;;;20.98;78.64;96181.19;5054753;28;20285;-50
2022/06/19 02:53:16;;;;;;;8.23;4.25;;;;;;;20.94;78.51;96167.38;5054674;28;20286;-50
2022/06/19 02:55:43;;;;;;;11.05;4.82;;;;;;;20.88;79.46;96176.31;5054604;28;20203;-50
2022/06/19 02:58:11;;;;;;;9.35;4.43;;;;;;;20.88;79.49;96173.63;5072235;28;20206;-50
2022/06/19 03:00:39;;;;;;;9.75;4.95;;;;;;;20.84;80.00;96175.94;5073994;28;20600;-51
2022/06/19 03:03:08;;;;;;;7.75;4.40;;;;;;;20.87;79.33;96173.84;5073166;28;20284;-52
2022/06/19 03:05:37;;;;;;;8.52;4.63;;;;;;;20.93;78.66;96173.81;5074806;28;20645;-50
2022/06/19 03:08:04;;;;;;;11.23;4.45;;;;;;;20.93;78.48;96179.19;5074052;28;20203;-51
2022/06/19 03:10:30;;;;;;;12.18;4.82;;;;;;;20.90;79.38;96173.41;5074268;28;20368;-49
2022/06/19 03:12:59;;;;;;;7.82;4.75;;;;;;;20.92;78.69;96165.94;5074271;28;20210;-51
2022/06/19 03:15:27;;;;;;;11.35;4.90;;;;;;;20.89;79.67;96166.38;5077358;28;20214;-49
2022/06/19 03:17:56;;;;;;;9.75;4.32;;;;;;;20.84;80.63;96165.19;5078411;28;20313;-51
2022/06/19 03:20:24;;;;;;;9.13;4.40;;;;;;;20.84;80.19;96167.88;5051234;28;20277;-50
2022/06/19 03:22:54;;;;;;;13.75;5.05;;;;;;;20.78;81.40;96176.81;5058203;28;20284;-52
2022/06/19 03:25:23;;;;;;;10.02;5.05;;;;;;;20.78;81.18;96171.44;5058149;28;20309;-51
2022/06/19 03:27:50;;;;;;;8.80;4.55;;;;;;;20.75;81.31;96177.25;5058187;28;20214;-50
2022/06/19 03:30:19;;;;;;;7.18;4.90;;;;;;;20.70;82.08;96169.00;5057899;28;20297;-51
2022/06/19 03:32:48;;;;;;;10.25;4.80;;;;;;;20.72;82.13;96171.47;5057849;28;20297;-50
2022/06/19 03:35:16;;;;;;;8.63;4.85;;;;;;;20.65;81.93;96176.88;5057982;28;20584;-51
2022/06/19 03:37:44;;;;;;;10.70;4.82;;;;;;;20.65;82.59;96163.44;5057565;28;20207;-50
2022/06/19 03:40:15;;;;;;;9.93;4.82;;;;;;;20.66;81.98;96172.34;5058041;28;20303;-50
2022/06/19 03:42:42;;;;;;;13.02;5.38;;;;;;;20.61;83.23;96161.44;5057951;28;20632;-51
2022/06/19 03:45:09;;;;;;;9.60;4.85;;;;;;;20.62;82.51;96166.56;5058081;28;20231;-51
2022/06/19 03:47:36;;;;;;;8.25;4.93;;;;;;;20.60;81.94;96167.84;5057674;28;20239;-50
2022/06/19 03:50:04;;;;;;;12.93;4.63;;;;;;;20.60;82.47;96173.22;5074106;28;20674;-50
2022/06/19 03:52:31;;;;;;;10.57;4.82;;;;;;;20.53;83.13;96165.19;5077753;28;20217;-50
2022/06/19 03:54:57;;;;;;;9.35;5.03;;;;;;;20.56;82.34;96166.63;5077564;28;20207;-50
2022/06/19 03:57:28;;;;;;;9.52;4.63;;;;;;;20.58;82.29;96168.03;5077499;28;20260;-51
2022/06/19 03:59:54;;;;;;;9.52;4.47;;;;;;;20.63;81.37;96170.91;5077782;28;20291;-51
2022/06/19 04:02:21;;;;;;;9.48;4.30;;;;;;;20.65;81.21;96171.50;5064935;28;20222;-50
2022/06/19 04:04:47;;;;;;;13.18;5.15;;;;;;;20.63;81.47;96173.59;5058205;28;20223;-50
2022/06/19 04:07:15;;;;;;;10.50;5.00;;;;;;;20.64;82.33;96177.94;5058114;28;20222;-52
2022/06/19 04:09:42;;;;;;;9.82;5.00;;;;;;;20.63;83.03;96173.59;5058119;28;20269;-51
2022/06/19 04:12:12;;;;;;;10.65;5.57;;;;;;;20.64;83.10;96175.25;5058207;28;20218;-50
2022/06/19 04:14:40;;;;;;;9.50;4.70;;;;;;;20.74;82.30;96180.13;5057958;28;20548;-52
2022/06/19 04:17:08;;;;;;;6.93;4.78;;;;;;;20.89;81.78;96171.75;5058208;28;20298;-50
2022/06/19 04:19:34;;;;;;;12.50;5.25;;;;;;;21.14;79.94;96175.31;5058141;28;20303;-50
2022/06/19 04:22:01;;;;;;;8.48;4.53;;;;;;;21.23;79.69;96173.97;5058014;28;20298;-51
2022/06/19 04:24:28;;;;;;;9.93;4.95;;;;;;;21.30;79.94;96175.56;5056566;28;20307;-51
2022/06/19 04:26:55;;;;;;;11.20;4.82;;;;;;;21.41;79.17;96171.31;5057360;28;20225;-50
2022/06/19 04:29:21;;;;;;;10.43;4.75;;;;;;;21.55;79.03;96167.47;5058197;28;20206;-51
2022/06/19 04:31:50;;;;;;;8.57;4.47;;;;;;;21.69;79.60;96171.66;5057845;28;20216;-49
2022/06/19 04:34:16;;;;;;;12.65;5.03;;;;;;;21.73;78.89;96170.16;5057991;28;20215;-49
2022/06/19 04:36:43;;;;;;;15.25;5.13;;;;;;;21.84;79.09;96165.91;5057228;28;20647;-51
2022/06/19 04:39:10;;;;;;;8.88;5.00;;;;;;;21.87;78.93;96164.63;5076247;28;20624;-50
2022/06/19 04:41:40;;;;;;;9.32;5.10;;;;;;;22.04;78.81;96171.06;5076579;28;20238;-49
2022/06/19 04:44:09;;;;;;;8.15;4.28;;;;;;;22.14;77.95;96177.56;5077644;28;20241;-49
2022/06/19 04:46:36;;;;;;;7.32;4.50;;;;;;;22.18;79.23;96173.38;5077313;28;20213;-50
2022/06/19 04:49:04;;;;;;;8.45;4.50;;;;;;;22.30;77.82;96181.53;5068714;28;20214;-51
2022/06/19 04:51:31;;;;;;;13.75;4.50;;;;;;;22.46;78.29;96175.50;5057215;28;20207;-51
2022/06/19 04:53:57;;;;;;;12.23;4.40;;;;;;;22.64;77.03;96182.69;5080914;28;20202;-51
2022/06/19 04:56:24;;;;;;;10.23;4.65;;;;;;;22.66;76.51;96180.63;5069566;28;20249;-52
2022/06/19 04:58:51;;;;;;;14.18;5.05;;;;;;;22.76;76.97;96187.13;5061067;28;20207;-50
2022/06/19 05:01:23;;;;;;;7.82;3.95;;;;;;;22.82;77.57;96179.97;5059927;28;20305;-55
2022/06/19 05:03:54;;;;;;;13.32;4.93;;;;;;;22.88;76.82;96186.34;5060717;28;20199;-52
2022/06/19 05:06:24;;;;;;;9.57;4.10;;;;;;;22.92;76.36;96184.81;5059887;28;20286;-51
2022/06/19 05:08:51;;;;;;;11.90;4.57;;;;;;;23.00;72.59;96179.06;5060068;28;20529;-50
2022/06/19 05:11:19;;;;;;;11.65;4.80;;;;;;;23.08;71.86;96184.13;5059247;28;20207;-50
2022/06/19 05:13:47;;;;;;;12.75;4.70;;;;;;;23.17;72.97;96177.34;5057578;28;20275;-50
2022/06/19 05:16:15;;;;;;;10.52;4.95;;;;;;;23.26;73.85;96175.97;5057586;28;20217;-51
2022/06/19 05:18:45;;;;;;;10.25;4.45;;;;;;;23.39;74.98;96183.00;5057450;28;20307;-51
2022/06/19 05:21:13;;;;;;;10.98;5.20;;;;;;;23.56;71.76;96178.59;5044819;28;20219;-50
2022/06/19 05:23:44;;;;;;;13.48;4.63;;;;;;;23.74;69.88;96184.66;5057360;28;20203;-50
2022/06/19 05:26:13;;;;;;;12.13;4.93;;;;;;;23.96;68.48;96181.34;5057824;28;20242;-51
2022/06/19 05:28:40;;;;;;;13.57;5.18;;;;;;;24.13;66.74;96179.56;5057352;28;20640;-52
2022/06/19 05:31:06;;;;;;;11.30;4.57;;;;;;;24.36;64.79;96189.50;5058809;28;20207;-50
2022/06/19 05:33:34;;;;;;;12.05;4.97;;;;;;;24.60;64.29;96183.75;5059413;28;20235;-49
2022/06/19 05:36:02;;;;;;;16.88;4.95;;;;;;;24.89;66.67;96181.06;5059502;28;20222;-51
2022/06/19 05:38:28;;;;;;;10.13;4.90;;;;;;;25.10;63.01;96181.16;5060851;28;20297;-50
2022/06/19 05:40:58;;;;;;;13.30;5.28;;;;;;;25.33;62.75;96177.47;5065965;28;20222;-51
2022/06/19 05:43:25;;;;;;;8.27;4.47;;;;;;;25.56;63.15;96182.75;5079038;28;20203;-50
2022/06/19 05:45:53;;;;;;;13.52;5.35;;;;;;;25.85;62.19;96185.31;5079138;28;20211;-50
2022/06/19 05:48:20;;;;;;;10.75;4.38;;;;;;;26.08;60.52;96187.78;5079028;28;20222;-51
2022/06/19 05:50:57;;;;;;;11.63;4.93;;;;;;;26.28;59.35;96196.22;5068685;28;20191;-51
2022/06/19 05:53:23;;;;;;;15.48;5.25;;;;;;;26.55;60.05;96196.25;5061452;28;20205;-51
2022/06/19 05:55:52;;;;;;;9.52;5.07;;;;;;;26.85;59.45;96202.06;5077768;28;20194;-51
2022/06/19 05:58:20;;;;;;;8.13;4.57;;;;;;;27.02;58.84;96196.53;5078344;28;20190;-51
2022/06/19 06:00:46;;;;;;;9.00;4.82;;;;;;;27.11;59.03;96194.97;5077656;28;20183;-51
2022/06/19 06:03:14;;;;;;;14.23;4.82;;;;;;;27.33;58.60;96186.75;5077596;28;20202;-50
2022/06/19 06:05:41;;;;;;;9.68;4.78;;;;;;;27.40;58.06;96188.16;5057010;28;20237;-52
2022/06/19 06:08:09;;;;;;;13.70;5.78;;;;;;;27.30;58.96;96188.09;5055729;28;20593;-51
2022/06/19 06:10:36;;;;;;;12.23;5.10;;;;;;;27.26;57.61;96186.13;5055709;28;20207;-51
2022/06/19 06:13:03;;;;;;;8.43;4.57;;;;;;;27.27;61.04;96183.19;5055619;28;20217;-51
2022/06/19 06:15:34;;;;;;;10.57;4.85;;;;;;;27.50;61.48;96188.25;5055585;28;20710;-52
2022/06/19 06:18:01;;;;;;;12.55;4.90;;;;;;;27.72;61.08;96190.03;5043244;28;20207;-51
2022/06/19 06:20:29;;;;;;;13.35;5.38;;;;;;;27.86;58.02;96180.34;5043448;28;20208;-50
2022/06/19 06:22:56;;;;;;;12.07;4.70;;;;;;;28.14;57.06;96177.25;5067189;28;20707;-51
2022/06/19 06:25:25;;;;;;;9.43;4.38;;;;;;;28.28;55.70;96178.41;5052042;28;20261;-50
2022/06/19 06:27:52;;;;;;;8.57;4.38;;;;;;;28.47;56.01;96182.31;5055725;28;20546;-50
2022/06/19 06:30:19;;;;;;;9.85;4.57;;;;;;;28.58;54.40;96188.59;5055415;28;20627;-50
2022/06/19 06:32:47;;;;;;;10.52;4.45;;;;;;;28.53;52.90;96191.28;5064922;28;20290;-50
2022/06/19 06:35:13;;;;;;;15.30;4.75;;;;;;;28.37;53.16;96187.72;5075643;28;20539;-50
2022/06/19 06:37:45;;;;;;;10.70;4.78;;;;;;;28.25;50.99;96187.13;5075331;28;20293;-51
2022/06/19 06:40:12;;;;;;;11.32;4.80;;;;;;;28.56;54.19;96186.13;5058477;28;20681;-51
2022/06/19 06:42:39;;;;;;;10.13;4.60;;;;;;;28.80;54.54;96180.25;5055634;28;20211;-52
2022/06/19 06:45:07;;;;;;;15.38;5.00;;;;;;;29.12;52.47;96178.94;5059252;28;20315;-52
2022/06/19 06:47:33;;;;;;;12.27;5.20;;;;;;;29.30;50.39;96174.88;5074885;28;20291;-50
2022/06/19 06:50:03;;;;;;;12.18;4.55;;;;;;;29.57;51.31;96186.34;5061561;28;20560;-51
2022/06/19 06:52:29;;;;;;;10.77;4.80;;;;;;;29.88;50.49;96186.31;5059632;28;20525;-50
2022/06/19 06:54:56;;;;;;;8.50;5.07;;;;;;;30.13;49.45;96186.25;5077256;28;20643;-52
2022/06/19 06:57:23;;;;;;;12.20;4.30;;;;;;;30.26;48.64;96180.19;5079376;28;20217;-52
2022/06/19 06:59:49;;;;;;;9.18;5.20;;;;;;;30.38;49.81;96180.72;5061171;28;20294;-50
2022/06/19 07:02:16;;;;;;;15.20;5.10;;;;;;;30.50;48.12;96174.97;5063278;28;20695;-52
2022/06/19 07:04:42;;;;;;;13.75;5.50;;;;;;;30.76;45.72;96179.19;5066576;28;20231;-51
2022/06/19 07:07:10;;;;;;;10.13;4.95;;;;;;;31.01;44.16;96179.06;5062499;28;20274;-52
2022/06/19 07:09:37;;;;;;;12.30;5.32;;;;;;;31.16;45.80;96169.94;5059229;28;20210;-50
2022/06/19 07:12:04;;;;;;;9.73;4.90;;;;;;;31.19;46.36;96172.09;5058864;28;20285;-52
2022/06/19 07:14:31;;;;;;;11.05;4.90;;;;;;;31.39;45.73;96171.13;5059023;28;20289;-51
2022/06/19 07:16:57;;;;;;;13.52;4.90;;;;;;;31.54;45.39;96160.91;5058950;28;20663;-52
2022/06/19 07:19:25;;;;;;;11.10;4.53;;;;;;;31.54;45.70;96171.03;5057862;28;20195;-51
2022/06/19 07:21:54;;;;;;;8.95;4.90;;;;;;;31.87;43.84;96164.69;5058811;28;20199;-52
2022/06/19 07:24:21;;;;;;;10.05;5.07;;;;;;;31.92;43.42;96161.88;5058953;28;20211;-51
2022/06/19 07:26:48;;;;;;;9.80;5.20;;;;;;;32.04;44.62;96156.84;5058832;28;20329;-51
2022/06/19 07:29:15;;;;;;;11.77;4.90;;;;;;;32.04;44.19;96158.75;5058737;28;20298;-51
2022/06/19 07:31:41;;;;;;;12.32;4.68;;;;;;;32.30;41.35;96160.13;5058881;28;20650;-50
2022/06/19 07:34:09;;;;;;;8.65;4.75;;;;;;;32.36;42.46;96155.41;5058652;28;20217;-52
2022/06/19 07:36:36;;;;;;;11.40;4.70;;;;;;;32.45;41.08;96161.88;5058211;28;20301;-51
2022/06/19 07:39:03;;;;;;;9.90;5.45;;;;;;;32.34;40.24;96152.97;5045229;28;20553;-51
2022/06/19 07:41:31;;;;;;;10.38;4.75;;;;;;;32.57;41.34;96151.28;5058753;28;20203;-51
2022/06/19 07:43:59;;;;;;;13.50;5.20;;;;;;;32.73;42.68;96152.75;5058679;28;20298;-50
2022/06/19 07:46:26;;;;;;;12.50;5.38;;;;;;;32.81;43.59;96151.25;5058274;28;20325;-51
2022/06/19 07:51:36;;;;;;;10.38;5.20;;;;;;;32.75;39.42;96152.44;5058081;28;20552;-52
2022/06/19 07:54:04;;;;;;;10.70;4.93;;;;;;;33.04;37.07;96150.38;5058428;28;20215;-50
2022/06/19 07:56:32;;;;;;;9.30;5.35;;;;;;;32.98;38.79;96140.63;5061150;28;20209;-50
2022/06/19 07:58:59;;;;;;;8.70;5.03;;;;;;;33.20;37.62;96146.31;5078481;28;20289;-50
2022/06/19 08:01:29;;;;;;;8.10;5.47;;;;;;;33.28;37.73;96139.34;5075281;28;20242;-50
2022/06/19 08:03:57;;;;;;;12.13;5.03;;;;;;;33.09;41.21;96128.38;5077235;28;20210;-51
2022/06/19 08:06:25;;;;;;;9.48;5.80;;;;;;;33.33;42.07;96131.88;5077688;28;20621;-50
2022/06/19 08:08:51;;;;;;;13.45;5.55;;;;;;;33.35;38.91;96134.28;5078101;28;20218;-50
2022/06/19 08:11:18;;;;;;;12.23;5.22;;;;;;;33.24;38.53;96130.91;5078027;28;20314;-51
2022/06/19 08:13:48;;;;;;;12.07;5.20;;;;;;;33.15;36.89;96134.63;5066171;28;20687;-51
2022/06/19 08:16:17;;;;;;;12.07;5.63;;;;;;;33.20;37.32;96121.66;5057316;28;20294;-51
2022/06/19 08:18:45;;;;;;;11.30;5.40;;;;;;;33.34;38.33;96132.66;5058242;28;20207;-50
2022/06/19 08:21:12;;;;;;;9.30;4.93;;;;;;;33.59;38.26;96125.91;5058200;28;20230;-52
2022/06/19 08:23:40;;;;;;;11.43;4.70;;;;;;;33.69;39.45;96125.78;5058394;28;20218;-50
2022/06/19 08:26:06;;;;;;;10.07;5.28;;;;;;;33.63;39.39;96118.75;5057638;28;20694;-51
2022/06/19 08:28:40;;;;;;;8.45;5.22;;;;;;;33.87;37.66;96122.16;5072050;28;20210;-50
2022/06/19 08:31:09;;;;;;;9.73;4.80;;;;;;;33.92;36.39;96120.13;5078126;28;20210;-51
2022/06/19 08:33:37;;;;;;;13.55;5.55;;;;;;;33.73;35.48;96118.59;5076199;28;20230;-51
2022/06/19 08:36:10;;;;;;;11.07;5.10;;;;;;;33.67;34.44;96114.28;5057884;28;20724;-51
2022/06/19 08:38:43;;;;;;;9.80;5.18;;;;;;;33.82;37.83;96116.75;5057655;28;20213;-49
2022/06/19 08:41:29;;;;;;;11.05;5.18;;;;;;;33.87;35.61;96119.41;5057901;28;20215;-52
2022/06/19 08:44:40;;;;;;;11.25;5.03;;;;;;;33.90;34.93;96116.06;5058162;28;20217;-53
2022/06/19 08:47:17;;;;;;;8.90;5.10;;;;;;;33.91;37.24;96113.00;5022036;28;20346;-52
2022/06/19 08:49:58;;;;;;;11.32;5.35;;;;;;;34.07;36.44;96116.28;5057767;28;20206;-50
2022/06/19 08:52:33;;;;;;;9.73;5.72;;;;;;;33.99;35.92;96114.22;5068134;28;20247;-50
2022/06/19 08:55:16;;;;;;;9.02;5.50;;;;;;;34.11;35.75;96114.53;5077308;28;20649;-50
2022/06/19 08:57:51;;;;;;;14.85;5.47;;;;;;;33.89;34.42;96103.47;5076989;28;20550;-50
2022/06/19 09:00:23;;;;;;;12.45;5.78;;;;;;;33.95;36.75;96111.28;5077566;28;20302;-51
2022/06/19 09:03:06;;;;;;;13.60;5.88;;;;;;;34.00;36.08;96111.19;5075671;28;20206;-51
2022/06/19 09:05:44;;;;;;;8.35;5.80;;;;;;;34.03;36.53;96109.75;5077819;28;20289;-50
2022/06/19 09:08:57;;;;;;;10.82;5.20;;;;;;;34.37;37.13;96112.91;5058319;28;20203;-51
2022/06/19 09:11:45;;;;;;;10.40;5.68;;;;;;;34.48;37.22;96114.31;5077399;28;20230;-50
2022/06/19 09:14:24;;;;;;;11.98;5.88;;;;;;;34.22;37.00;96116.00;5068016;28;20221;-50
2022/06/19 09:16:56;;;;;;;10.55;5.80;;;;;;;34.37;39.89;96107.41;5069331;28;20242;-52
2022/06/19 09:19:37;;;;;;;11.15;6.35;;;;;;;34.50;37.05;96094.81;5060019;28;20541;-52
2022/06/19 09:22:15;;;;;;;10.98;6.35;;;;;;;34.44;35.77;96102.31;5057062;28;20203;-50
2022/06/19 09:24:51;;;;;;;12.05;5.80;;;;;;;34.61;36.14;96100.88;5056886;28;20294;-50
2022/06/19 09:27:20;;;;;;;8.95;6.53;;;;;;;34.49;37.68;96102.22;5056935;28;20310;-50
2022/06/19 09:29:51;;;;;;;7.32;6.45;;;;;;;34.79;38.51;96102.72;5056274;28;20723;-52
2022/06/19 09:32:22;;;;;;;9.38;6.72;;;;;;;34.74;37.71;96100.06;5056406;28;20297;-51
2022/06/19 09:34:54;;;;;;;12.32;6.10;;;;;;;35.05;36.96;96092.72;5056420;28;20199;-51
2022/06/19 09:37:23;;;;;;;9.90;6.43;;;;;;;35.22;38.01;96083.81;5057473;28;20206;-50
2022/06/19 09:39:56;;;;;;;11.25;6.07;;;;;;;34.72;36.91;96083.09;5058448;28;20219;-50
2022/06/19 09:42:26;;;;;;;8.27;5.78;;;;;;;35.11;36.75;96077.72;5045532;28;20643;-48
2022/06/19 09:44:57;;;;;;;7.78;6.47;;;;;;;35.20;40.56;96070.41;5061189;28;20203;-50
2022/06/19 09:47:29;;;;;;;10.20;6.07;;;;;;;35.24;35.74;96074.16;5059711;28;20572;-50
2022/06/19 09:50:03;;;;;;;8.40;6.05;;;;;;;35.43;35.92;96079.41;5060889;28;20329;-49
2022/06/19 09:52:32;;;;;;;12.52;6.03;;;;;;;35.41;36.46;96076.19;5056926;28;20238;-51
2022/06/19 09:55:04;;;;;;;7.30;5.70;;;;;;;35.27;35.34;96070.75;5056110;28;20203;-50
2022/06/19 09:57:35;;;;;;;12.05;6.45;;;;;;;35.08;36.65;96064.59;5055414;28;20703;-49
2022/06/19 10:00:06;;;;;;;8.25;6.10;;;;;;;35.11;37.48;96066.72;5056135;28;20234;-51
2022/06/19 10:02:40;;;;;;;7.90;6.30;;;;;;;35.36;37.11;96063.38;5056074;28;20199;-51
2022/06/19 10:05:13;;;;;;;7.97;6.47;;;;;;;35.64;36.78;96074.25;5056017;28;20206;-50
2022/06/19 10:07:42;;;;;;;8.52;6.60;;;;;;;35.64;37.07;96064.03;5055864;28;20203;-49
2022/06/19 10:10:18;;;;;;;11.77;6.88;;;;;;;35.53;37.45;96067.34;5055950;28;20301;-49
2022/06/19 10:12:47;;;;;;;7.18;6.55;;;;;;;35.31;38.21;96057.19;5055953;28;20214;-51
2022/06/19 10:15:15;;;;;;;9.32;6.80;;;;;;;35.45;36.37;96060.69;5055793;28;20231;-50
2022/06/19 10:17:49;;;;;;;7.30;6.60;;;;;;;35.30;36.11;96059.13;5055249;28;20230;-51
2022/06/19 10:20:20;;;;;;;12.25;6.85;;;;;;;35.22;35.04;96059.06;5055278;28;20210;-51
2022/06/19 10:22:58;;;;;;;8.57;6.72;;;;;;;35.29;36.32;96059.44;5054840;28;20215;-49
2022/06/19 10:25:35;;;;;;;10.93;7.28;;;;;;;35.09;36.16;96055.25;5057250;28;20203;-51
2022/06/19 10:28:12;;;;;;;9.43;7.38;;;;;;;35.20;38.01;96053.91;5076294;28;20208;-51
2022/06/19 10:30:45;;;;;;;10.05;7.25;;;;;;;35.24;35.70;96048.59;5077264;28;20202;-51
2022/06/19 10:33:21;;;;;;;10.38;6.50;;;;;;;35.20;37.58;96042.91;5075461;28;20198;-50
2022/06/19 10:35:54;;;;;;;8.50;6.72;;;;;;;35.34;38.19;96043.63;5076087;28;20198;-51
2022/06/19 10:38:35;;;;;;;8.43;6.80;;;;;;;35.61;39.07;96041.84;5075447;28;20554;-51
2022/06/19 10:41:04;;;;;;;9.52;6.55;;;;;;;35.75;36.82;96042.56;5075652;28;20268;-52
2022/06/19 10:43:43;;;;;;;11.30;7.25;;;;;;;35.94;36.86;96040.38;5074901;28;20202;-51
2022/06/19 10:46:10;;;;;;;10.40;6.93;;;;;;;35.95;36.53;96036.50;5075183;28;20305;-51
2022/06/19 10:48:45;;;;;;;11.57;6.78;;;;;;;36.09;35.74;96036.41;5056900;28;20330;-51
2022/06/19 10:51:22;;;;;;;11.05;6.88;;;;;;;36.13;34.71;96040.94;5069311;28;20630;-50
2022/06/19 10:53:58;;;;;;;11.48;7.18;;;;;;;36.04;36.91;96044.75;5076337;28;20213;-50
2022/06/19 10:56:35;;;;;;;9.73;7.22;;;;;;;36.21;35.63;96031.88;5077565;28;20269;-50
2022/06/19 10:59:04;;;;;;;12.35;6.78;;;;;;;36.32;34.25;96033.19;5075254;28;20635;-50
2022/06/19 11:04:22;;;;;;;11.13;6.05;;;;;;;36.48;34.74;96032.75;5055039;28;20206;-50
2022/06/19 11:06:53;;;;;;;10.45;7.25;;;;;;;36.22;34.40;96028.00;5055154;28;20245;-50
2022/06/19 11:09:24;;;;;;;11.48;6.25;;;;;;;35.96;31.67;96034.56;5055229;28;20207;-52
2022/06/19 11:11:54;;;;;;;8.88;6.22;;;;;;;36.12;32.47;96014.53;5055201;28;20535;-51
2022/06/19 11:14:33;;;;;;;10.93;6.95;;;;;;;36.31;31.92;96023.34;5054850;28;20219;-51
2022/06/19 11:17:01;;;;;;;13.25;6.18;;;;;;;36.60;31.15;96022.72;5055001;28;20203;-50
2022/06/19 11:19:33;;;;;;;7.13;6.43;;;;;;;36.72;32.47;96008.28;5055073;28;20231;-51
2022/06/19 11:22:02;;;;;;;11.60;7.20;;;;;;;36.70;33.24;96010.59;5054885;28;20703;-50
2022/06/19 11:24:32;;;;;;;9.50;6.28;;;;;;;36.71;35.15;96004.72;5054712;28;20298;-50
2022/06/19 11:26:59;;;;;;;11.32;6.80;;;;;;;36.72;33.75;96002.78;5054248;28;20317;-50
2022/06/19 11:29:29;;;;;;;8.63;6.63;;;;;;;36.79;32.72;96005.88;5054389;28;20207;-51
2022/06/19 11:32:10;;;;;;;10.27;6.45;;;;;;;36.75;33.20;96002.13;5054081;28;20294;-51
2022/06/19 11:34:48;;;;;;;10.82;6.30;;;;;;;36.82;33.38;96000.50;5054760;28;20211;-51
2022/06/19 11:37:20;;;;;;;10.13;6.35;;;;;;;36.87;31.07;95996.78;5058724;28;20223;-50
2022/06/19 11:39:49;;;;;;;13.20;6.65;;;;;;;36.92;31.66;96004.88;5058428;28;20218;-50
2022/06/19 11:42:28;;;;;;;7.65;6.15;;;;;;;36.96;33.13;96002.25;5057434;28;20294;-51
2022/06/19 11:44:57;;;;;;;10.02;6.35;;;;;;;37.16;33.91;95991.41;5074104;28;20221;-50
2022/06/19 11:47:35;;;;;;;11.20;6.43;;;;;;;37.04;32.28;95995.97;5077688;28;20254;-50